Northampton, United Kingdom
Current Conditions -  °F | °C
As of 5:50 PM on Thursday 18 Dec 2014 (Local Time) from EGTC Reporting Station
Broken Clouds Broken Clouds  
Wind Chill: 55°   Ceiling: 1400
Heat Index: 55°   Visibility: 6mi
Dew Point: 50°   Wind: 28mph
Humidity: 82%   Direction: 250°WSW
Pressure: 29.74"   Gusts: 40mph
Location:  52.24°N, 0.9°W
Report Text: EGTC 181750Z 25024G35KT 9999 BKN014 13/10 Q1007
Loading
Personal Weather Stations






























Interactive Weather Map New forecast layout! Learn more

10-Day Weather Forecast

Advertisements
Track Severe Weather on mobile